Time;durP1;ratioP1;P1;durP2;ratioP2;P2;SDS_P1;SDS_P2;PMS_P1;PMS_P2;Temp;Humidity;BMP_temperature;BMP_pressure;BME280_temperature;BME280_humidity;BME280_pressure;Samples;Min_cycle;Max_cycle;Signal;HPM_P1;HPM_P2
2023/08/16 00:01:23;;;;;;;7.63;5.20;;;;;;;17.93;81.78;101733.25;4990829;28;20041;-77
2023/08/16 00:03:48;;;;;;;6.22;5.25;;;;;;;17.92;81.89;101729.72;4993713;28;20768;-77
2023/08/16 00:06:14;;;;;;;8.13;5.30;;;;;;;17.91;81.89;101735.41;4988748;28;20034;-77
2023/08/16 00:08:40;;;;;;;7.60;5.50;;;;;;;17.86;82.48;101731.44;4990054;28;20030;-77
2023/08/16 00:11:05;;;;;;;9.68;6.45;;;;;;;17.78;83.42;101731.72;4985409;28;20030;-77
2023/08/16 00:13:31;;;;;;;6.35;5.55;;;;;;;17.73;83.14;101724.22;4987218;28;20072;-77
2023/08/16 00:15:57;;;;;;;6.55;5.60;;;;;;;17.69;83.08;101714.84;4993698;28;20056;-77
2023/08/16 00:18:22;;;;;;;11.02;5.40;;;;;;;17.65;82.91;101721.78;4989898;28;20562;-77
2023/08/16 00:20:48;;;;;;;9.00;5.10;;;;;;;17.61;82.49;101723.31;4986094;28;20022;-77
2023/08/16 00:23:13;;;;;;;9.07;5.63;;;;;;;17.60;82.47;101716.19;4992707;28;20042;-77
2023/08/16 00:25:39;;;;;;;7.22;5.07;;;;;;;17.56;82.49;101715.78;4992109;28;20026;-77
2023/08/16 00:28:04;;;;;;;5.95;4.90;;;;;;;17.52;82.90;101714.56;4988938;28;20446;-77
2023/08/16 00:30:30;;;;;;;10.60;5.57;;;;;;;17.52;82.60;101721.91;4989039;28;20038;-77
2023/08/16 00:32:55;;;;;;;6.75;4.70;;;;;;;17.53;82.56;101718.13;4994043;28;20030;-77
2023/08/16 00:35:21;;;;;;;8.68;4.80;;;;;;;17.57;82.25;101716.63;4993866;28;20023;-77
2023/08/16 00:37:46;;;;;;;5.97;4.32;;;;;;;17.60;82.16;101716.19;4993206;28;20038;-77
2023/08/16 00:40:11;;;;;;;6.35;4.20;;;;;;;17.64;81.75;101717.41;4991333;28;20022;-77
2023/08/16 00:42:37;;;;;;;6.28;4.63;;;;;;;17.67;81.89;101721.56;4993443;28;20033;-77
2023/08/16 00:45:03;;;;;;;5.68;4.60;;;;;;;17.64;82.31;101724.72;4993378;28;20030;-77
2023/08/16 00:47:28;;;;;;;8.38;4.68;;;;;;;17.61;81.74;101723.31;4992217;28;20030;-77
2023/08/16 00:49:53;;;;;;;9.32;4.40;;;;;;;17.65;81.57;101724.50;4992327;28;20033;-77
2023/08/16 00:52:19;;;;;;;5.93;4.32;;;;;;;17.70;81.37;101732.84;4987159;28;20023;-77
2023/08/16 00:54:44;;;;;;;5.47;4.22;;;;;;;17.72;81.31;101725.28;4992112;28;20565;-77
2023/08/16 00:57:10;;;;;;;5.55;4.07;;;;;;;17.72;81.27;101730.72;4987760;28;20095;-76
2023/08/16 00:59:35;;;;;;;5.35;3.83;;;;;;;17.76;81.23;101722.13;4989163;28;20364;-76
2023/08/16 01:02:00;;;;;;;6.05;3.97;;;;;;;17.73;80.43;101726.94;4985382;28;20026;-76
2023/08/16 01:04:32;;;;;;;6.53;4.20;;;;;;;17.76;80.59;101724.84;4990751;28;20030;-76
2023/08/16 01:06:57;;;;;;;7.15;4.10;;;;;;;17.72;80.76;101725.28;4985105;28;20031;-77
2023/08/16 01:09:24;;;;;;;8.43;4.28;;;;;;;17.72;80.84;101730.72;4980095;28;20038;-77
2023/08/16 01:12:15;;;;;;;6.68;4.40;;;;;;;17.68;81.20;101739.56;4987989;28;20394;-77
2023/08/16 01:15:01;;;;;;;4.88;4.03;;;;;;;17.65;81.63;101732.66;4975099;28;20030;-77
2023/08/16 01:17:34;;;;;;;6.75;4.20;;;;;;;17.60;82.48;101740.69;4985535;28;20070;-77
2023/08/16 01:20:00;;;;;;;6.43;4.75;;;;;;;17.56;83.16;101745.72;4974565;28;20060;-77
2023/08/16 01:22:54;;;;;;;5.93;4.93;;;;;;;17.54;83.53;101749.75;4992316;28;20045;-77
2023/08/16 01:25:43;;;;;;;7.60;5.22;;;;;;;17.51;83.70;101751.03;5088314;22;20074;-77
2023/08/16 01:28:09;;;;;;;9.52;4.88;;;;;;;17.48;83.98;101753.34;4974072;28;20057;-78
2023/08/16 01:30:34;;;;;;;8.73;5.63;;;;;;;17.43;84.23;101746.69;4979106;28;20408;-77
2023/08/16 01:33:07;;;;;;;8.98;6.00;;;;;;;17.43;84.80;101745.84;4982524;28;20036;-77
2023/08/16 01:35:34;;;;;;;7.55;6.30;;;;;;;17.35;85.48;101751.56;4974052;28;20039;-77
2023/08/16 01:37:59;;;;;;;9.18;6.85;;;;;;;17.27;85.75;101755.38;4964423;28;20035;-77
2023/08/16 01:40:25;;;;;;;10.80;6.97;;;;;;;17.16;86.91;101762.38;4968699;28;20494;-77
2023/08/16 01:42:50;;;;;;;7.22;6.50;;;;;;;17.09;86.98;101754.25;4969369;22;20030;-77
2023/08/16 01:45:17;;;;;;;8.18;7.15;;;;;;;17.04;87.29;101751.34;4987426;28;20039;-77
2023/08/16 01:47:42;;;;;;;8.10;6.80;;;;;;;16.99;87.71;101748.44;4988472;28;20053;-76
2023/08/16 01:50:08;;;;;;;7.28;6.50;;;;;;;16.94;88.36;101751.78;4967345;28;20039;-77
2023/08/16 01:52:35;;;;;;;10.30;7.20;;;;;;;16.88;88.68;101749.09;4973645;28;20442;-77
2023/08/16 01:55:00;;;;;;;10.05;7.85;;;;;;;16.83;89.08;101756.00;4973288;28;20031;-77
2023/08/16 01:57:28;;;;;;;8.75;7.65;;;;;;;16.72;90.11;101742.25;4974220;28;20038;-77
2023/08/16 01:59:53;;;;;;;8.00;6.85;;;;;;;16.68;90.47;101753.56;4974353;28;20025;-77
2023/08/16 02:02:19;;;;;;;9.15;7.35;;;;;;;16.65;90.73;101747.72;4972959;28;20035;-77
2023/08/16 02:04:44;;;;;;;9.70;7.60;;;;;;;16.64;90.49;101756.94;4973556;28;20018;-77
2023/08/16 02:07:10;;;;;;;8.73;7.82;;;;;;;16.63;90.40;101757.97;4975781;28;20265;-77
2023/08/16 02:09:35;;;;;;;8.85;7.30;;;;;;;16.63;90.91;101760.69;4972762;28;20429;-77
2023/08/16 02:12:01;;;;;;;8.30;6.97;;;;;;;16.63;90.53;101757.97;4973514;28;20423;-77
2023/08/16 02:14:26;;;;;;;7.75;6.95;;;;;;;16.65;90.26;101756.75;4973793;28;20111;-77
2023/08/16 02:16:52;;;;;;;7.47;6.70;;;;;;;16.67;89.68;101745.63;4975371;28;20093;-77
2023/08/16 02:19:17;;;;;;;8.10;7.30;;;;;;;16.67;89.39;101761.94;4973983;28;20125;-77
2023/08/16 02:21:43;;;;;;;9.75;7.43;;;;;;;16.65;89.35;101750.44;4974739;28;20079;-77
2023/08/16 02:24:09;;;;;;;7.70;6.88;;;;;;;16.62;89.41;101745.44;4968962;28;20031;-78
2023/08/16 02:26:37;;;;;;;7.55;6.72;;;;;;;16.61;89.28;101739.19;4981610;22;20055;-78
2023/08/16 02:29:02;;;;;;;7.63;6.70;;;;;;;16.59;89.24;101738.56;4971110;28;20015;-78
2023/08/16 02:31:31;;;;;;;9.35;6.93;;;;;;;16.57;88.88;101734.41;4972300;28;20030;-78
2023/08/16 02:33:57;;;;;;;7.50;6.47;;;;;;;16.55;89.00;101733.78;4974191;28;20026;-77
2023/08/16 02:36:23;;;;;;;8.15;6.68;;;;;;;16.54;88.82;101730.22;4972985;28;20394;-77
2023/08/16 02:38:48;;;;;;;8.45;6.22;;;;;;;16.51;88.47;101730.63;4971100;28;20081;-77
2023/08/16 02:41:14;;;;;;;7.93;6.88;;;;;;;16.49;88.34;101739.00;4971181;28;20034;-77
2023/08/16 02:43:39;;;;;;;8.95;7.30;;;;;;;16.45;88.64;101745.09;4972638;28;20018;-77
2023/08/16 02:46:04;;;;;;;8.32;6.88;;;;;;;16.41;88.52;101747.41;4972120;28;20015;-77
2023/08/16 02:48:30;;;;;;;9.30;6.63;;;;;;;16.34;89.40;101741.97;4974261;28;20747;-78
2023/08/16 02:50:55;;;;;;;7.10;6.40;;;;;;;16.30;89.72;101745.34;4974749;28;20019;-78
2023/08/16 02:53:21;;;;;;;7.97;6.72;;;;;;;16.23;89.75;101739.13;4971491;28;21678;-77
2023/08/16 02:55:49;;;;;;;7.45;6.32;;;;;;;16.26;89.42;101749.53;4972542;28;20031;-77
2023/08/16 02:58:15;;;;;;;8.05;6.47;;;;;;;16.22;89.23;101746.41;4975325;28;20037;-78
2023/08/16 03:00:43;;;;;;;9.40;6.75;;;;;;;16.19;89.41;101749.53;4970220;28;20030;-78
2023/08/16 03:03:08;;;;;;;6.93;6.22;;;;;;;16.20;89.08;101751.22;4971075;28;20487;-77
2023/08/16 03:05:37;;;;;;;8.85;6.25;;;;;;;16.19;88.97;101744.97;4971939;28;20023;-77
2023/08/16 03:08:03;;;;;;;8.45;6.10;;;;;;;16.17;88.74;101755.22;4974339;28;20017;-75
2023/08/16 03:10:28;;;;;;;10.07;6.03;;;;;;;16.15;88.81;101754.59;4969963;28;20043;-75
2023/08/16 03:12:55;;;;;;;9.40;6.20;;;;;;;16.16;88.80;101758.97;4973510;28;20023;-75
2023/08/16 03:15:21;;;;;;;11.90;6.47;;;;;;;16.13;88.85;101756.66;4971096;28;20061;-74
2023/08/16 03:17:46;;;;;;;11.55;6.28;;;;;;;16.17;88.62;101757.94;4973779;28;20035;-75
2023/08/16 03:20:12;;;;;;;10.15;6.25;;;;;;;16.15;88.64;101754.59;4978601;28;20077;-74
2023/08/16 03:22:38;;;;;;;8.05;6.05;;;;;;;16.18;88.55;101751.44;4972931;28;20464;-75
2023/08/16 03:25:04;;;;;;;6.03;5.47;;;;;;;16.15;88.54;101765.44;4976203;28;20034;-75
2023/08/16 03:27:29;;;;;;;9.57;5.93;;;;;;;16.14;88.69;101758.34;4974335;28;20058;-74
2023/08/16 03:29:54;;;;;;;8.43;6.20;;;;;;;16.14;88.75;101752.91;4972012;28;20026;-75
2023/08/16 03:32:20;;;;;;;6.65;5.95;;;;;;;16.14;88.62;101755.63;4972978;28;20031;-75
2023/08/16 03:34:45;;;;;;;7.68;5.55;;;;;;;16.13;88.77;101755.84;4973377;28;20492;-75
2023/08/16 03:37:11;;;;;;;10.52;5.85;;;;;;;16.10;88.78;101759.81;4975811;28;20043;-75
2023/08/16 03:39:36;;;;;;;6.32;5.68;;;;;;;16.08;89.07;101758.34;4975957;28;20026;-75
2023/08/16 03:42:01;;;;;;;8.70;5.68;;;;;;;16.03;89.05;101765.25;4976405;28;20038;-74
2023/08/16 03:44:27;;;;;;;9.35;5.72;;;;;;;16.01;88.60;101764.63;4985437;28;20085;-74
2023/08/16 03:46:52;;;;;;;7.75;5.90;;;;;;;15.99;88.81;101774.03;4977705;28;20090;-75
2023/08/16 03:49:18;;;;;;;8.35;5.88;;;;;;;16.06;88.52;101770.25;4979864;28;20022;-74
2023/08/16 03:51:43;;;;;;;7.95;5.65;;;;;;;16.05;88.73;101784.06;4978982;28;20610;-75
2023/08/16 03:54:08;;;;;;;7.97;5.68;;;;;;;16.03;88.82;101778.84;4972687;28;20037;-75
2023/08/16 03:56:34;;;;;;;6.85;5.50;;;;;;;16.04;88.81;101785.13;4979957;28;20042;-75
2023/08/16 03:59:00;;;;;;;7.38;5.82;;;;;;;16.04;88.83;101779.69;4976787;28;20039;-74
2023/08/16 04:01:26;;;;;;;6.43;5.28;;;;;;;16.08;88.88;101788.25;4974419;28;20050;-74
2023/08/16 04:03:51;;;;;;;9.20;5.38;;;;;;;16.09;88.88;101788.00;4974720;28;20101;-75
2023/08/16 04:06:20;;;;;;;9.60;5.72;;;;;;;16.08;88.69;101799.91;5065801;22;20065;-77
2023/08/16 04:08:46;;;;;;;6.20;5.43;;;;;;;16.11;88.96;101799.50;5008085;28;20117;-76
2023/08/16 04:11:11;;;;;;;8.15;6.25;;;;;;;16.08;89.47;101802.63;5019064;28;20096;-75
2023/08/16 04:13:37;;;;;;;6.72;5.80;;;;;;;16.10;89.44;101807.88;5008283;28;20777;-75
2023/08/16 04:16:02;;;;;;;7.50;5.78;;;;;;;16.10;89.67;101802.44;5021434;28;20026;-76
2023/08/16 04:18:31;;;;;;;7.63;6.00;;;;;;;16.09;89.86;101801.59;5027300;28;20061;-75
2023/08/16 04:20:59;;;;;;;12.15;6.18;;;;;;;16.04;90.10;101801.41;5013327;28;20125;-74
2023/08/16 04:23:25;;;;;;;6.55;5.55;;;;;;;16.06;90.29;101810.19;5011297;28;20030;-74
2023/08/16 04:25:51;;;;;;;6.80;5.25;;;;;;;16.06;90.33;101815.63;5003948;28;20581;-74
2023/08/16 04:28:16;;;;;;;6.82;5.97;;;;;;;16.03;90.71;101810.59;5068247;23;20054;-74
2023/08/16 04:30:42;;;;;;;9.10;6.18;;;;;;;16.04;90.81;101812.28;5010119;28;20030;-77
2023/08/16 04:33:44;;;;;;;7.97;6.00;;;;;;;16.02;90.89;101814.38;5089268;22;20394;-76
2023/08/16 04:36:31;;;;;;;9.18;6.30;;;;;;;15.99;90.94;101814.78;5004865;28;20050;-75
2023/08/16 04:38:56;;;;;;;8.15;6.35;;;;;;;15.97;91.23;101814.16;5011960;28;20107;-75
2023/08/16 04:41:46;;;;;;;8.85;6.60;;;;;;;15.95;91.74;101822.50;5005443;28;20022;-75
2023/08/16 04:44:11;;;;;;;7.25;5.78;;;;;;;15.94;91.78;101825.41;5053321;23;20074;-75
2023/08/16 04:46:36;;;;;;;8.10;6.07;;;;;;;15.94;92.12;101825.41;4992788;28;20038;-75
2023/08/16 04:49:02;;;;;;;8.27;5.65;;;;;;;15.93;92.71;101819.16;4994289;28;20026;-75
2023/08/16 04:51:27;;;;;;;9.25;6.30;;;;;;;15.91;92.42;101829.41;4991977;28;20545;-75
2023/08/16 04:53:53;;;;;;;8.85;6.47;;;;;;;15.95;92.84;101837.97;4999666;28;20022;-76
2023/08/16 04:56:18;;;;;;;7.20;6.13;;;;;;;15.96;92.84;101843.19;4999585;28;20410;-76
2023/08/16 04:58:44;;;;;;;9.55;6.40;;;;;;;15.94;93.96;101844.44;4998039;28;20034;-76
2023/08/16 05:01:09;;;;;;;9.50;6.45;;;;;;;15.95;93.90;101846.97;4985543;28;20098;-76
2023/08/16 05:03:34;;;;;;;9.30;6.60;;;;;;;15.91;94.59;101838.38;4995900;28;20041;-76
2023/08/16 05:06:03;;;;;;;9.75;7.22;;;;;;;15.83;95.93;101832.28;4993670;28;20490;-76
2023/08/16 05:08:29;;;;;;;8.88;6.28;;;;;;;15.81;95.61;101834.34;4996842;28;20030;-76
2023/08/16 05:10:56;;;;;;;9.98;7.07;;;;;;;15.75;96.69;101841.47;4995104;28;20386;-76
2023/08/16 05:13:21;;;;;;;9.45;7.25;;;;;;;15.74;97.16;101845.22;4995680;28;20027;-75
2023/08/16 05:15:47;;;;;;;8.00;6.30;;;;;;;15.75;97.60;101847.75;4994850;28;20030;-75
2023/08/16 05:18:12;;;;;;;8.63;6.85;;;;;;;15.77;98.20;101844.81;4992640;28;20027;-75
2023/08/16 05:20:38;;;;;;;8.63;6.82;;;;;;;15.76;98.25;101852.13;4998668;28;20022;-75
2023/08/16 05:23:04;;;;;;;10.13;6.95;;;;;;;15.74;98.47;101850.66;4992987;28;20105;-75
2023/08/16 05:26:23;;;;;;;10.57;6.70;;;;;;;15.80;98.28;101866.13;5007118;22;20460;-75
2023/08/16 05:28:58;;;;;;;12.10;7.22;;;;;;;15.82;98.42;101853.19;5013655;28;20546;-75
2023/08/16 05:31:36;;;;;;;;;;;;;;;;;;;;;
2023/08/16 05:34:08;;;;;;;8.75;6.90;;;;;;;15.79;98.87;101858.19;4989909;28;20037;-76
2023/08/16 05:36:46;;;;;;;7.88;6.10;;;;;;;15.78;98.88;101862.78;5014141;28;20060;-76
2023/08/16 05:39:12;;;;;;;7.97;7.07;;;;;;;15.74;98.98;101864.22;5022055;28;20025;-77
2023/08/16 05:41:38;;;;;;;10.30;6.93;;;;;;;15.75;99.59;101869.47;5025374;28;20018;-77
2023/08/16 05:44:03;;;;;;;10.82;6.35;;;;;;;15.76;99.88;101862.13;5014435;28;20030;-77
2023/08/16 05:46:29;;;;;;;10.50;6.50;;;;;;;15.73;100.00;101862.53;5012369;28;20032;-77
2023/08/16 05:48:54;;;;;;;7.80;6.18;;;;;;;15.74;100.00;101862.34;5015499;28;20037;-77
2023/08/16 05:51:22;;;;;;;10.55;6.50;;;;;;;15.79;100.00;101861.72;5012592;28;20068;-76
2023/08/16 05:53:51;;;;;;;9.70;6.90;;;;;;;15.78;100.00;101862.78;5007488;28;20081;-75
2023/08/16 05:56:20;;;;;;;10.68;7.00;;;;;;;15.78;100.00;101862.78;5014258;23;20145;-78
2023/08/16 05:58:46;;;;;;;9.43;6.65;;;;;;;15.90;100.00;101863.03;5009674;28;20030;-78
2023/08/16 06:01:17;;;;;;;9.27;6.82;;;;;;;15.90;100.00;101874.72;5007180;28;20391;-79
2023/08/16 06:03:42;;;;;;;9.27;6.88;;;;;;;15.97;100.00;101877.47;5005865;28;20302;-75
2023/08/16 06:06:08;;;;;;;8.90;6.20;;;;;;;15.95;100.00;101874.13;5012093;28;20474;-75
2023/08/16 06:08:33;;;;;;;7.65;5.78;;;;;;;16.05;100.00;101879.13;5008199;28;20030;-76
2023/08/16 06:10:58;;;;;;;8.88;6.60;;;;;;;16.16;100.00;101870.34;5010410;28;20212;-76
2023/08/16 06:13:25;;;;;;;8.68;5.88;;;;;;;16.23;100.00;101877.66;5011656;28;20393;-76
2023/08/16 06:15:51;;;;;;;6.85;5.70;;;;;;;16.29;99.39;101874.09;5010586;28;20033;-77
2023/08/16 06:18:17;;;;;;;9.02;6.38;;;;;;;16.34;99.73;101882.47;5013752;28;20460;-76
2023/08/16 06:20:43;;;;;;;6.75;6.05;;;;;;;16.35;99.77;101881.41;5012652;28;20036;-77
2023/08/16 06:23:09;;;;;;;9.30;6.30;;;;;;;16.40;99.85;101878.06;5004746;28;20110;-76
2023/08/16 06:25:34;;;;;;;7.93;6.00;;;;;;;16.47;99.45;101884.34;5009161;28;20033;-76
2023/08/16 06:27:59;;;;;;;12.32;6.32;;;;;;;16.47;98.90;101879.72;5012602;28;20040;-76
2023/08/16 06:30:27;;;;;;;9.43;6.03;;;;;;;16.46;98.96;101886.19;5010976;28;20030;-77
2023/08/16 06:32:53;;;;;;;6.93;5.80;;;;;;;16.52;98.07;101884.50;4989039;28;20025;-77
2023/08/16 06:35:19;;;;;;;9.45;6.60;;;;;;;16.56;98.74;101888.50;5012249;28;20042;-75
2023/08/16 06:37:46;;;;;;;8.85;5.97;;;;;;;16.76;98.12;101874.03;5019654;28;20038;-76
2023/08/16 06:40:11;;;;;;;11.43;6.38;;;;;;;17.02;97.08;101878.56;5027391;28;20026;-76
2023/08/16 06:42:40;;;;;;;8.95;5.75;;;;;;;17.35;94.52;101877.59;5012293;28;20060;-76
2023/08/16 06:45:07;;;;;;;11.18;6.32;;;;;;;17.38;93.71;101879.06;5002762;28;20116;-76
2023/08/16 06:47:35;;;;;;;8.85;5.78;;;;;;;17.71;92.69;101881.56;5008953;28;20030;-76
2023/08/16 06:50:04;;;;;;;8.50;5.63;;;;;;;18.45;89.77;101885.63;5009279;28;20029;-76
2023/08/16 06:52:30;;;;;;;8.75;5.15;;;;;;;19.48;84.16;101893.28;5010762;28;20398;-76
2023/08/16 06:54:58;;;;;;;7.88;4.72;;;;;;;19.97;79.75;101888.56;5010299;28;20025;-76
2023/08/16 06:57:26;;;;;;;7.15;4.80;;;;;;;19.99;79.52;101888.31;5011114;28;20414;-77
2023/08/16 06:59:51;;;;;;;8.50;4.80;;;;;;;19.92;78.20;101898.56;5010373;28;20022;-76
2023/08/16 07:02:26;;;;;;;7.30;4.55;;;;;;;20.08;77.33;101902.47;5037086;22;20056;-77
2023/08/16 07:04:51;;;;;;;6.15;4.88;;;;;;;19.91;78.60;101888.69;5029452;28;20029;-77
2023/08/16 07:07:20;;;;;;;7.15;4.60;;;;;;;20.17;76.28;101902.97;5029697;28;20044;-77
2023/08/16 07:09:45;;;;;;;10.85;5.28;;;;;;;19.75;76.98;101907.38;5030397;28;20036;-77
2023/08/16 07:12:14;;;;;;;9.70;5.18;;;;;;;19.64;78.67;101913.63;5024725;28;20017;-77
2023/08/16 07:14:45;;;;;;;8.43;4.82;;;;;;;19.21;79.05;101907.25;5029369;28;20025;-77
2023/08/16 07:17:11;;;;;;;6.47;4.60;;;;;;;18.76;81.08;101913.84;5028283;28;20032;-76
2023/08/16 07:19:36;;;;;;;9.63;4.63;;;;;;;18.69;79.71;101902.19;5028665;28;20021;-76
2023/08/16 07:22:02;;;;;;;6.80;4.75;;;;;;;18.64;81.50;101905.56;5029906;28;20028;-76
2023/08/16 07:24:27;;;;;;;6.55;4.90;;;;;;;18.53;80.62;101903.59;5029562;28;20040;-76
2023/08/16 07:26:52;;;;;;;9.35;4.70;;;;;;;18.63;80.75;101912.91;5030943;28;20049;-76
2023/08/16 07:29:18;;;;;;;8.63;5.15;;;;;;;18.67;80.10;101915.19;5029296;28;20029;-76
2023/08/16 07:31:43;;;;;;;6.22;4.30;;;;;;;18.89;78.56;101919.13;5029183;28;20033;-77
2023/08/16 07:34:09;;;;;;;8.50;4.75;;;;;;;18.98;79.23;101921.63;5029431;28;20030;-77
2023/08/16 07:36:34;;;;;;;8.90;4.57;;;;;;;19.16;77.20;101916.16;5030776;28;20033;-77
2023/08/16 07:39:02;;;;;;;6.00;3.95;;;;;;;19.29;77.85;101927.97;5026372;28;20067;-76
2023/08/16 07:41:28;;;;;;;9.15;4.00;;;;;;;19.61;76.57;101930.47;5032421;28;20030;-76
2023/08/16 07:43:53;;;;;;;5.57;4.40;;;;;;;19.53;75.71;101926.16;5031564;28;20453;-76
2023/08/16 07:46:18;;;;;;;6.70;4.10;;;;;;;19.46;76.13;101915.34;5030314;28;20037;-77
2023/08/16 07:48:47;;;;;;;9.05;4.35;;;;;;;19.45;75.50;101919.13;5031205;28;20021;-78
2023/08/16 07:51:12;;;;;;;6.00;4.07;;;;;;;19.67;74.17;101919.47;5030789;28;20033;-78
2023/08/16 07:53:37;;;;;;;6.43;4.35;;;;;;;19.98;73.80;101919.47;5028563;28;20037;-77
2023/08/16 07:56:04;;;;;;;8.70;4.28;;;;;;;20.35;72.45;101930.22;5031778;28;20036;-77
2023/08/16 07:58:29;;;;;;;8.43;3.90;;;;;;;21.12;69.54;101927.56;5031270;28;20025;-77
2023/08/16 08:00:56;;;;;;;7.25;3.60;;;;;;;22.00;66.39;101929.25;5028268;28;20517;-78
2023/08/16 08:03:22;;;;;;;6.88;3.60;;;;;;;22.65;63.29;101933.34;5025124;28;20460;-77
2023/08/16 08:05:47;;;;;;;5.60;3.35;;;;;;;23.28;60.89;101935.00;5022988;28;20481;-77
2023/08/16 08:08:13;;;;;;;5.38;2.97;;;;;;;24.64;56.04;101939.56;5030174;28;20055;-77
2023/08/16 08:10:43;;;;;;;6.65;3.00;;;;;;;25.35;54.12;101936.59;5031554;28;20091;-77
2023/08/16 08:13:08;;;;;;;5.95;2.78;;;;;;;25.60;53.61;101940.53;5029464;28;20052;-77
2023/08/16 08:15:34;;;;;;;4.88;2.70;;;;;;;26.31;51.22;101930.66;5028357;28;20030;-77
2023/08/16 08:17:59;;;;;;;7.78;3.10;;;;;;;27.14;48.67;101936.81;5029464;28;20033;-77
2023/08/16 08:20:25;;;;;;;7.63;3.13;;;;;;;27.43;47.42;101940.81;5028087;28;20034;-78
2023/08/16 08:22:50;;;;;;;6.63;2.67;;;;;;;27.50;46.65;101935.84;5031795;28;20032;-77
2023/08/16 08:25:15;;;;;;;5.47;2.70;;;;;;;27.17;46.02;101943.75;5026234;28;20567;-78
2023/08/16 08:27:41;;;;;;;7.00;2.80;;;;;;;26.94;47.29;101938.56;5033563;28;20025;-77
2023/08/16 08:30:07;;;;;;;6.22;2.50;;;;;;;25.94;49.90;101940.06;5033262;28;20040;-77
2023/08/16 08:32:33;;;;;;;4.88;2.92;;;;;;;24.76;52.91;101952.31;5028184;28;20044;-77
2023/08/16 08:34:58;;;;;;;5.15;2.75;;;;;;;24.22;54.59;101954.94;5033955;28;20022;-77
2023/08/16 08:37:25;;;;;;;7.63;2.85;;;;;;;23.97;56.34;101960.22;5033339;28;20052;-77
2023/08/16 08:39:50;;;;;;;7.32;2.90;;;;;;;23.69;56.76;101960.19;5035675;28;20458;-77
2023/08/16 08:42:16;;;;;;;6.07;3.40;;;;;;;23.30;58.14;101960.28;5045499;28;20037;-77
2023/08/16 08:44:42;;;;;;;5.25;3.15;;;;;;;23.02;59.45;101954.72;5021376;28;20030;-77
2023/08/16 08:47:08;;;;;;;8.82;3.50;;;;;;;22.89;60.15;101963.31;5017103;28;20385;-77
2023/08/16 08:52:03;;;;;;;8.10;3.47;;;;;;;22.71;60.69;101958.94;5069803;28;20040;-77
2023/08/16 08:54:29;;;;;;;5.00;3.00;;;;;;;22.76;61.07;101956.28;5073276;28;20031;-77
2023/08/16 08:56:54;;;;;;;6.55;2.97;;;;;;;22.78;60.39;101961.50;5050202;28;20044;-77
2023/08/16 08:59:21;;;;;;;7.93;3.13;;;;;;;22.24;62.43;101958.19;5043238;28;20097;-77
2023/08/16 09:01:49;;;;;;;5.50;3.20;;;;;;;22.19;62.39;101968.25;5059656;28;20017;-77
2023/08/16 09:04:17;;;;;;;6.00;3.13;;;;;;;22.56;61.75;101974.09;5053159;28;20046;-76
2023/08/16 09:06:43;;;;;;;5.38;3.05;;;;;;;22.90;60.62;101984.19;5057928;28;21224;-77
2023/08/16 09:09:10;;;;;;;7.43;2.92;;;;;;;23.08;59.47;101987.72;5059826;28;20037;-77
2023/08/16 09:11:36;;;;;;;5.60;3.40;;;;;;;23.10;60.16;101985.56;5049571;28;20379;-77
2023/08/16 09:14:02;;;;;;;5.32;3.03;;;;;;;23.19;59.11;101986.78;5035214;28;20053;-76
2023/08/16 09:16:27;;;;;;;6.43;3.13;;;;;;;22.97;60.07;101984.84;5042113;28;20050;-76
2023/08/16 09:18:53;;;;;;;7.00;3.30;;;;;;;22.81;60.54;101975.56;5071733;28;20021;-76
2023/08/16 09:21:19;;;;;;;7.03;3.20;;;;;;;23.09;59.93;101968.25;5064342;28;20078;-76
2023/08/16 09:23:45;;;;;;;7.68;3.50;;;;;;;23.31;59.03;101962.78;5063286;28;20074;-75
2023/08/16 09:26:17;;;;;;;5.82;2.97;;;;;;;23.41;58.46;101956.59;5067022;28;20024;-77
2023/08/16 09:28:43;;;;;;;8.13;3.35;;;;;;;23.43;58.73;101951.69;5066664;28;20037;-76
2023/08/16 09:31:09;;;;;;;5.53;3.20;;;;;;;23.46;57.21;101956.66;5061102;28;20040;-76
2023/08/16 09:33:35;;;;;;;7.68;3.25;;;;;;;23.45;57.43;101963.25;5066909;28;20033;-76
2023/08/16 09:36:01;;;;;;;5.35;2.80;;;;;;;23.64;57.75;101954.66;5060835;28;20024;-76
2023/08/16 09:38:27;;;;;;;4.20;2.80;;;;;;;24.36;55.23;101957.25;5051752;28;20069;-76
2023/08/16 09:40:54;;;;;;;5.38;3.22;;;;;;;24.62;53.64;101954.69;5063035;28;21254;-77
2023/08/16 09:43:22;;;;;;;7.70;2.72;;;;;;;24.55;53.03;101957.66;5061713;28;20120;-76
2023/08/16 09:45:52;;;;;;;7.03;2.75;;;;;;;24.92;52.61;101951.28;5062251;28;20030;-77
2023/08/16 09:48:21;;;;;;;6.78;3.08;;;;;;;24.19;54.75;101960.13;5073007;28;20055;-76
2023/08/16 09:50:47;;;;;;;6.20;3.20;;;;;;;24.81;53.38;101955.09;5062174;28;20052;-76
2023/08/16 09:53:13;;;;;;;6.15;3.20;;;;;;;25.15;51.91;101951.13;5044036;28;20475;-76
2023/08/16 09:55:45;;;;;;;6.60;3.20;;;;;;;24.61;53.68;101944.78;5067562;28;20040;-76
2023/08/16 09:58:12;;;;;;;4.72;2.80;;;;;;;24.86;53.60;101955.13;5060101;28;20028;-75
2023/08/16 10:00:37;;;;;;;5.97;3.42;;;;;;;24.67;53.85;101950.03;5062181;28;20032;-76
2023/08/16 10:03:04;;;;;;;9.00;3.28;;;;;;;24.66;54.76;101951.13;5055011;28;20029;-77
2023/08/16 10:05:29;;;;;;;4.75;2.72;;;;;;;24.87;54.16;101948.53;5049437;28;20163;-76
2023/08/16 10:07:56;;;;;;;6.85;3.17;;;;;;;24.87;53.64;101956.78;5060716;28;20480;-76
2023/08/16 10:10:21;;;;;;;6.57;3.10;;;;;;;24.72;54.14;101941.00;5068443;28;20032;-76
2023/08/16 10:12:47;;;;;;;3.53;2.55;;;;;;;25.68;52.06;101940.00;5060688;28;20028;-75
2023/08/16 10:15:13;;;;;;;6.50;3.00;;;;;;;26.08;50.69;101937.56;5061375;28;20037;-75
2023/08/16 10:17:42;;;;;;;5.38;2.80;;;;;;;27.17;48.26;101938.22;5071057;28;20066;-76
2023/08/16 10:20:25;;;;;;;5.38;2.67;;;;;;;27.72;46.10;101940.09;5057267;28;20107;-76
2023/08/16 10:23:00;;;;;;;5.28;2.58;;;;;;;28.54;44.18;101944.97;5062965;28;20031;-76
2023/08/16 10:25:30;;;;;;;5.80;2.67;;;;;;;27.92;44.75;101939.97;5071451;28;20481;-76
2023/08/16 10:27:56;;;;;;;6.25;2.85;;;;;;;27.48;46.14;101941.66;5068279;28;20095;-76
2023/08/16 10:30:22;;;;;;;6.78;3.00;;;;;;;27.67;45.62;101941.81;5050825;28;20545;-76
2023/08/16 10:33:03;;;;;;;5.80;2.53;;;;;;;29.05;43.40;101937.22;5063641;28;20465;-76
2023/08/16 10:35:28;;;;;;;3.80;2.70;;;;;;;28.92;43.17;101938.75;5032844;28;20029;-76
2023/08/16 10:37:56;;;;;;;5.75;2.63;;;;;;;28.30;43.95;101950.47;5017546;28;20626;-76
2023/08/16 10:40:22;;;;;;;6.07;2.47;;;;;;;28.80;43.24;101952.22;5072001;28;20350;-76
2023/08/16 10:42:57;;;;;;;3.83;2.70;;;;;;;29.54;42.00;101948.22;5061704;28;20036;-76
2023/08/16 10:45:30;;;;;;;6.15;2.80;;;;;;;29.58;41.17;101944.53;5057895;28;20028;-76
2023/08/16 10:47:55;;;;;;;5.25;2.72;;;;;;;29.25;41.44;101944.44;5055130;28;20028;-75
2023/08/16 10:50:34;;;;;;;5.97;3.00;;;;;;;28.70;42.42;101955.88;5054300;28;20358;-76
2023/08/16 10:53:00;;;;;;;5.05;2.70;;;;;;;28.44;43.69;101945.91;5063279;28;20074;-76
2023/08/16 10:55:25;;;;;;;6.15;2.55;;;;;;;28.56;44.50;101952.97;5043513;28;20059;-76
2023/08/16 10:57:52;;;;;;;4.75;2.70;;;;;;;28.20;44.24;101945.88;5058287;28;20052;-77
2023/08/16 11:00:18;;;;;;;6.15;2.92;;;;;;;28.13;45.07;101945.38;5068943;28;20028;-76
2023/08/16 11:02:45;;;;;;;5.25;2.83;;;;;;;27.62;45.30;101943.78;5069451;28;20025;-78
2023/08/16 11:05:20;;;;;;;5.25;3.00;;;;;;;27.06;46.51;101940.19;5043136;28;20119;-77
2023/08/16 11:07:46;;;;;;;;;;;;;;;27.03;46.76;101938.78;5059600;28;20066;-77
2023/08/16 11:10:11;;;;;;;4.10;2.50;;;;;;;27.60;45.88;101940.50;5063481;28;19917;-76
2023/08/16 11:12:37;;;;;;;6.00;2.80;;;;;;;26.86;47.53;101932.78;5064179;28;20040;-76
2023/08/16 11:15:05;;;;;;;5.55;2.75;;;;;;;27.54;46.70;101946.03;5063740;28;20029;-76
2023/08/16 11:17:30;;;;;;;4.07;2.45;;;;;;;27.86;46.03;101946.66;5055517;28;20059;-76
2023/08/16 11:19:56;;;;;;;4.72;2.22;;;;;;;28.15;44.79;101943.13;5051056;28;20107;-77
2023/08/16 11:22:22;;;;;;;4.43;2.63;;;;;;;28.14;44.83;101942.31;5061468;28;20043;-78
2023/08/16 11:24:48;;;;;;;4.65;2.50;;;;;;;28.51;44.76;101941.94;5070771;28;20024;-77
2023/08/16 11:27:20;;;;;;;5.97;2.38;;;;;;;29.21;42.80;101946.16;5058167;28;20044;-77
2023/08/16 11:29:49;;;;;;;4.45;2.20;;;;;;;29.92;40.91;101935.13;5052195;28;20028;-77